LFBY/XDA METAR and TAF weather

Enter ICAO airport designator
Station Type Date Time Source
LFBY METAR 2019/05/20 11:06 UTC NOAA

LFBY 201106Z 20007KT 6000 SCT009 BKN016 BKN033 13/12 Q1016 RMK B2


Station Type Date Time Source
LFBY Decoded METAR 2019/05/20 11:06 UTC NOAA

Dax, France (LFBY) 43-41N 001-04W 32M
May 20, 2019 - 07:06 AM EDT / 2019.05.20 1106 UTC
Wind: from the SSW (200 degrees) at 8 MPH (7 KT):0
Visibility: 3 mile(s):0
Sky conditions: mostly cloudy
Temperature: 55 F (13 C)
Dew Point: 53 F (12 C)
Relative Humidity: 93%
Pressure (altimeter): 30.00 in. Hg (1016 hPa)
ob: LFBY 201106Z 20007KT 6000 SCT009 BKN016 BKN033 13/12 Q1016 RMK B2
cycle: 11

Station Type Date Time Source
LFBY TAF UTC NOAA

Error!

Example: see airport list